Time;durP1;ratioP1;P1;durP2;ratioP2;P2;SDS_P1;SDS_P2;PMS_P1;PMS_P2;Temp;Humidity;BMP_temperature;BMP_pressure;BME280_temperature;BME280_humidity;BME280_pressure;Samples;Min_cycle;Max_cycle;Signal;HPM_P1;HPM_P2
2023/07/24 00:00:14;;;;;;;29.05;14.10;;;;;;;20.28;100.00;92580.00;4808357;29;20035;-79
2023/07/24 00:02:40;;;;;;;27.73;12.68;;;;;;;20.28;100.00;92568.63;4792860;29;20076;-79
2023/07/24 00:05:06;;;;;;;25.55;13.10;;;;;;;20.26;100.00;92570.84;4793680;29;20058;-79
2023/07/24 00:07:32;;;;;;;26.67;13.52;;;;;;;20.25;100.00;92574.63;4795032;29;20046;-79
2023/07/24 00:09:57;;;;;;;22.50;12.75;;;;;;;20.24;100.00;92573.06;4794181;29;20027;-80
2023/07/24 00:12:23;;;;;;;25.67;12.98;;;;;;;20.25;100.00;92577.28;4794225;30;20047;-79
2023/07/24 00:14:49;;;;;;;24.45;12.43;;;;;;;20.24;100.00;92570.41;4794015;29;20039;-79
2023/07/24 00:17:14;;;;;;;23.75;12.80;;;;;;;20.21;100.00;92574.53;4792681;29;20039;-79
2023/07/24 00:19:40;;;;;;;24.83;13.50;;;;;;;20.14;100.00;92569.81;4792537;29;20522;-79
2023/07/24 00:22:06;;;;;;;26.33;13.05;;;;;;;20.15;100.00;92579.34;4793809;30;20057;-79
2023/07/24 00:24:32;;;;;;;22.92;12.50;;;;;;;20.15;100.00;92571.38;4793098;30;20039;-79
2023/07/24 00:26:58;;;;;;;23.83;12.90;;;;;;;20.14;100.00;92551.22;4793082;29;20043;-79
2023/07/24 00:29:23;;;;;;;27.35;13.38;;;;;;;20.13;100.00;92549.69;4808100;29;20069;-79
2023/07/24 00:31:49;;;;;;;28.80;13.73;;;;;;;20.10;100.00;92541.63;4817930;29;20047;-78
2023/07/24 00:34:14;;;;;;;25.52;14.13;;;;;;;20.08;100.00;92538.53;4817624;29;20074;-79
2023/07/24 00:36:40;;;;;;;26.83;13.80;;;;;;;20.07;100.00;92543.09;4811080;29;20046;-79
2023/07/24 00:39:06;;;;;;;29.02;13.63;;;;;;;20.05;100.00;92540.00;4811714;29;20059;-80
2023/07/24 00:41:32;;;;;;;27.25;13.88;;;;;;;20.03;100.00;92536.16;4811365;29;20046;-79
2023/07/24 00:43:58;;;;;;;24.92;13.25;;;;;;;20.02;100.00;92540.69;4811053;29;20418;-79
2023/07/24 00:46:24;;;;;;;24.13;13.70;;;;;;;20.03;100.00;92536.16;4809500;29;20441;-79
2023/07/24 00:48:51;;;;;;;25.10;12.95;;;;;;;19.99;100.00;92536.03;4810771;29;20135;-78
2023/07/24 00:51:17;;;;;;;24.60;12.90;;;;;;;19.97;100.00;92535.63;4808709;29;20047;-80
2023/07/24 00:53:43;;;;;;;25.20;12.90;;;;;;;19.95;100.00;92532.56;4808599;29;20508;-80
2023/07/24 00:56:10;;;;;;;28.23;13.52;;;;;;;19.95;100.00;92533.31;4793564;29;20054;-80
2023/07/24 00:58:37;;;;;;;26.83;13.57;;;;;;;19.93;100.00;92521.50;4808854;29;20030;-79
2023/07/24 01:01:03;;;;;;;24.60;12.63;;;;;;;19.94;100.00;92523.03;4809959;29;20058;-80
2023/07/24 01:03:34;;;;;;;28.98;13.48;;;;;;;19.93;100.00;92529.47;4809075;29;20088;-79
2023/07/24 01:06:03;;;;;;;26.67;12.70;;;;;;;19.91;100.00;92526.38;4809382;29;20046;-79
2023/07/24 01:08:29;;;;;;;27.95;13.43;;;;;;;19.92;100.00;92531.34;4809812;29;20505;-80
2023/07/24 01:10:59;;;;;;;25.63;13.32;;;;;;;19.91;100.00;92523.72;4811237;29;20058;-80
2023/07/24 01:13:30;;;;;;;23.65;12.55;;;;;;;19.91;100.00;92513.09;4810316;29;20035;-80
2023/07/24 01:16:06;;;;;;;25.15;13.45;;;;;;;19.91;100.00;92523.72;4811731;29;20130;-79
2023/07/24 01:18:33;;;;;;;27.63;13.27;;;;;;;19.89;100.00;92528.59;4810784;29;20050;-80
2023/07/24 01:21:01;;;;;;;24.60;13.15;;;;;;;19.89;100.00;92528.59;4808944;29;20042;-80
2023/07/24 01:23:50;;;;;;;29.70;13.27;;;;;;;19.88;100.00;92514.56;4811241;29;20106;-79
2023/07/24 01:26:16;;;;;;;30.77;14.20;;;;;;;19.91;100.00;92513.09;4828144;29;20048;-80
2023/07/24 01:28:43;;;;;;;28.90;13.40;;;;;;;19.93;100.00;92513.53;4827965;29;20125;-80
2023/07/24 01:31:09;;;;;;;27.42;13.52;;;;;;;19.93;100.00;92516.19;4828722;29;20054;-80
2023/07/24 01:33:35;;;;;;;31.80;13.63;;;;;;;19.91;100.00;92513.88;4826801;29;20538;-80
2023/07/24 01:36:03;;;;;;;23.88;12.88;;;;;;;19.91;100.00;92518.41;4813805;29;20065;-79
2023/07/24 01:38:31;;;;;;;27.33;13.98;;;;;;;19.89;100.00;92510.78;4826844;29;20063;-79
2023/07/24 01:40:59;;;;;;;27.15;12.95;;;;;;;19.89;100.00;92513.44;4829090;29;20034;-80
2023/07/24 01:43:28;;;;;;;26.15;13.07;;;;;;;19.89;100.00;92515.31;4819692;29;20059;-78
2023/07/24 01:45:54;;;;;;;29.67;14.05;;;;;;;19.88;100.00;92505.78;4809759;29;20520;-79
2023/07/24 01:48:20;;;;;;;24.67;13.40;;;;;;;19.87;100.00;92509.59;4818757;29;20137;-78
2023/07/24 01:50:46;;;;;;;26.55;12.43;;;;;;;19.86;100.00;92510.69;4827604;29;20042;-79
2023/07/24 01:53:12;;;;;;;26.63;13.48;;;;;;;19.86;100.00;92506.16;4829236;29;20037;-79
2023/07/24 01:55:38;;;;;;;27.70;13.52;;;;;;;19.86;100.00;92498.19;4822128;29;20045;-79
2023/07/24 01:58:04;;;;;;;24.48;12.80;;;;;;;19.86;100.00;92494.75;4811235;29;20193;-79
2023/07/24 02:00:30;;;;;;;28.98;13.48;;;;;;;19.85;100.00;92493.22;4810039;29;20309;-79
2023/07/24 02:02:59;;;;;;;26.90;13.23;;;;;;;19.86;100.00;92494.75;4826746;29;20034;-79
2023/07/24 02:05:25;;;;;;;28.13;13.18;;;;;;;19.84;100.00;92491.69;4827878;29;20422;-79
2023/07/24 02:07:51;;;;;;;27.83;12.98;;;;;;;19.85;100.00;92486.00;4829025;29;20042;-79
2023/07/24 02:10:16;;;;;;;27.23;12.93;;;;;;;19.83;100.00;92484.81;4827353;29;20045;-79
2023/07/24 02:12:42;;;;;;;29.25;13.52;;;;;;;19.81;100.00;92477.19;4828398;29;20034;-79
2023/07/24 02:15:08;;;;;;;27.52;14.07;;;;;;;19.80;100.00;92480.97;4829820;29;20038;-79
2023/07/24 02:17:35;;;;;;;29.50;13.65;;;;;;;19.79;100.00;92478.66;4812341;29;20048;-79
2023/07/24 02:20:01;;;;;;;27.17;14.15;;;;;;;19.79;100.00;92483.94;4827265;29;20521;-79
2023/07/24 02:22:27;;;;;;;25.40;13.48;;;;;;;19.75;100.00;92471.38;4829050;29;20030;-79
2023/07/24 02:24:53;;;;;;;25.67;13.77;;;;;;;19.72;100.00;92469.41;4828385;29;20413;-79
2023/07/24 02:27:31;;;;;;;29.73;13.63;;;;;;;19.74;100.00;92480.44;4827828;29;20471;-79
2023/07/24 02:29:57;;;;;;;26.33;13.60;;;;;;;19.74;100.00;92479.66;4829063;29;20038;-79
2023/07/24 02:32:23;;;;;;;27.58;13.77;;;;;;;19.71;100.00;92462.53;4828914;29;20447;-79
2023/07/24 02:34:50;;;;;;;26.02;13.13;;;;;;;19.71;100.00;92467.09;4829026;29;20042;-79
2023/07/24 02:37:16;;;;;;;27.85;14.60;;;;;;;19.69;100.00;92475.38;4827296;29;20121;-79
2023/07/24 02:39:41;;;;;;;26.10;13.60;;;;;;;19.65;100.00;92471.84;4828748;29;20133;-79
2023/07/24 02:42:07;;;;;;;22.77;13.05;;;;;;;19.64;100.00;92472.19;4829509;29;20030;-79
2023/07/24 02:44:34;;;;;;;29.02;13.88;;;;;;;19.62;100.00;92458.50;4828152;29;20119;-78
2023/07/24 02:47:01;;;;;;;29.15;14.07;;;;;;;19.63;100.00;92455.47;4821898;29;20078;-79
2023/07/24 02:49:27;;;;;;;27.10;13.50;;;;;;;19.60;100.00;92458.84;4809441;29;20039;-79
2023/07/24 02:51:53;;;;;;;24.85;12.68;;;;;;;19.58;100.00;92463.72;4810603;29;20184;-78
2023/07/24 02:54:18;;;;;;;27.95;14.27;;;;;;;19.54;100.00;92465.50;4809318;29;20071;-78
2023/07/24 02:56:44;;;;;;;31.25;13.90;;;;;;;19.49;100.00;92465.75;4807366;29;20035;-79
2023/07/24 02:59:10;;;;;;;24.95;14.00;;;;;;;19.46;100.00;92461.91;4809879;29;20175;-79
2023/07/24 03:01:36;;;;;;;29.95;14.32;;;;;;;19.45;100.00;92464.91;4807870;29;20049;-79
2023/07/24 03:04:02;;;;;;;28.90;13.55;;;;;;;19.45;100.00;92459.59;4809037;29;20051;-79
2023/07/24 03:06:29;;;;;;;22.73;13.02;;;;;;;19.40;100.00;92467.81;4808812;29;20043;-79
2023/07/24 03:08:54;;;;;;;28.67;14.18;;;;;;;19.34;100.00;92468.06;4809365;29;20468;-79
2023/07/24 03:11:20;;;;;;;28.20;14.00;;;;;;;19.30;100.00;92467.19;4808561;29;20039;-79
2023/07/24 03:13:46;;;;;;;29.15;14.07;;;;;;;19.26;100.00;92462.91;4820350;29;20038;-78
2023/07/24 03:16:12;;;;;;;30.13;14.07;;;;;;;19.26;100.00;92468.22;4817050;29;20042;-79
2023/07/24 03:18:37;;;;;;;30.55;14.48;;;;;;;19.25;100.00;92462.16;4797777;29;20035;-78
2023/07/24 03:21:03;;;;;;;37.92;14.43;;;;;;;19.22;100.00;92449.53;4810618;29;20066;-77
2023/07/24 03:23:29;;;;;;;32.40;14.88;;;;;;;19.18;100.00;92424.81;4810514;29;20142;-78
2023/07/24 03:25:54;;;;;;;28.70;15.32;;;;;;;19.17;100.00;92410.00;4808968;29;20058;-78
2023/07/24 03:28:20;;;;;;;29.33;14.82;;;;;;;19.14;100.00;92398.19;4809402;29;20050;-78
2023/07/24 03:30:46;;;;;;;29.63;15.13;;;;;;;19.12;100.00;92400.41;4810907;29;20062;-78
2023/07/24 03:33:12;;;;;;;28.45;14.48;;;;;;;19.12;100.00;92420.88;4809069;29;20417;-78
2023/07/24 03:35:39;;;;;;;32.05;14.65;;;;;;;19.08;100.00;92425.31;4806098;29;20042;-77
2023/07/24 03:38:05;;;;;;;29.05;14.13;;;;;;;19.00;100.00;92403.13;4797339;29;20039;-77
2023/07/24 03:40:32;;;;;;;34.08;16.08;;;;;;;19.00;100.00;92403.13;4816182;29;20043;-79
2023/07/24 03:42:57;;;;;;;26.38;14.75;;;;;;;19.02;100.00;92432.72;4807663;29;20071;-77
2023/07/24 03:45:23;;;;;;;29.27;14.85;;;;;;;19.03;100.00;92444.13;4806111;29;20074;-78
2023/07/24 03:47:49;;;;;;;30.55;15.27;;;;;;;19.04;100.00;92435.06;4804368;29;20046;-81
2023/07/24 03:50:14;;;;;;;33.17;15.27;;;;;;;19.07;100.00;92429.06;4804079;29;20126;-81
2023/07/24 03:52:40;;;;;;;29.15;14.75;;;;;;;19.10;100.00;92415.13;4810148;29;20034;-81
2023/07/24 03:55:07;;;;;;;32.15;15.18;;;;;;;19.15;100.00;92438.75;4807778;29;20490;-79
2023/07/24 03:57:34;;;;;;;26.98;14.82;;;;;;;19.11;100.00;92443.19;4808760;29;20034;-80
2023/07/24 03:59:59;;;;;;;28.00;14.65;;;;;;;19.12;100.00;92445.53;4808287;29;20608;-82
2023/07/24 04:02:25;;;;;;;32.40;14.98;;;;;;;19.13;100.00;92417.88;4810418;29;20046;-80
2023/07/24 04:04:50;;;;;;;25.25;13.70;;;;;;;19.15;100.00;92377.72;4807863;29;20047;-82
2023/07/24 04:07:16;;;;;;;31.98;14.57;;;;;;;19.21;100.00;92389.66;4806458;29;20042;-79
2023/07/24 04:09:42;;;;;;;28.20;13.95;;;;;;;19.30;100.00;92424.75;4804281;29;20099;-79
2023/07/24 04:12:07;;;;;;;26.70;14.82;;;;;;;19.31;100.00;92431.56;4805495;29;20047;-80
2023/07/24 04:14:33;;;;;;;30.00;15.13;;;;;;;19.30;100.00;92429.28;4809443;29;20072;-80
2023/07/24 04:16:58;;;;;;;27.90;15.13;;;;;;;19.28;100.00;92434.94;4810779;29;20094;-80
2023/07/24 04:19:24;;;;;;;29.08;14.20;;;;;;;19.29;100.00;92436.44;4811690;29;20375;-80
2023/07/24 04:21:50;;;;;;;32.55;15.93;;;;;;;19.30;100.00;92431.94;4804662;29;20031;-80
2023/07/24 04:24:15;;;;;;;29.58;14.82;;;;;;;19.33;100.00;92415.31;4813725;29;20039;-79
2023/07/24 04:26:42;;;;;;;29.90;14.15;;;;;;;19.38;100.00;92406.34;4808054;29;20046;-80
2023/07/24 04:29:07;;;;;;;33.25;14.00;;;;;;;19.50;100.00;92408.91;4808863;29;20047;-80
2023/07/24 04:31:33;;;;;;;24.58;13.45;;;;;;;19.36;100.00;92388.09;4804490;29;20064;-80
2023/07/24 04:33:59;;;;;;;27.02;14.93;;;;;;;19.22;100.00;92364.63;4811859;29;20034;-80
2023/07/24 04:36:24;;;;;;;30.10;15.82;;;;;;;19.12;100.00;92367.81;4810095;29;20061;-80
2023/07/24 04:38:50;;;;;;;34.22;16.27;;;;;;;18.93;100.00;92371.13;4812956;29;20029;-80
2023/07/24 04:41:16;;;;;;;31.63;16.08;;;;;;;18.91;100.00;92400.66;4811497;29;20540;-79
2023/07/24 04:43:42;;;;;;;34.53;15.30;;;;;;;18.85;100.00;92438.38;4810916;29;20046;-80
2023/07/24 04:46:07;;;;;;;34.08;14.13;;;;;;;19.01;100.00;92419.84;4812456;29;20406;-81
2023/07/24 04:48:33;;;;;;;37.83;18.88;;;;;;;18.74;100.00;92353.19;4804627;29;20051;-80
2023/07/24 04:50:59;;;;;;;27.92;13.85;;;;;;;18.77;100.00;92371.09;4809010;29;20043;-80
2023/07/24 04:53:24;;;;;;;39.10;17.35;;;;;;;18.71;100.00;92398.94;4804692;29;20126;-80
2023/07/24 04:55:50;;;;;;;40.25;18.52;;;;;;;18.72;100.00;92414.50;4812604;29;20046;-80
2023/07/24 04:58:15;;;;;;;35.30;17.50;;;;;;;18.71;100.00;92428.09;4807280;29;20027;-79
2023/07/24 05:00:41;;;;;;;40.67;18.25;;;;;;;18.65;100.00;92440.06;4813354;29;20117;-81
2023/07/24 05:03:10;;;;;;;35.25;18.23;;;;;;;18.58;100.00;92445.19;4805742;29;20039;-80
2023/07/24 05:05:37;;;;;;;42.40;18.58;;;;;;;18.56;100.00;92445.50;4808744;29;20061;-80
2023/07/24 05:08:02;;;;;;;39.10;19.92;;;;;;;18.51;100.00;92451.03;4808469;29;20054;-81
2023/07/24 05:10:28;;;;;;;38.30;20.30;;;;;;;18.50;100.00;92458.19;4811204;29;20046;-80
2023/07/24 05:12:56;;;;;;;42.03;19.88;;;;;;;18.54;100.00;92450.38;4805908;29;20098;-80
2023/07/24 05:15:22;;;;;;;44.88;19.60;;;;;;;18.51;100.00;92429.84;4809089;29;20147;-80
2023/07/24 05:17:47;;;;;;;41.35;19.13;;;;;;;18.60;100.00;92411.13;4808274;29;20064;-81
2023/07/24 05:20:13;;;;;;;41.50;19.67;;;;;;;18.63;100.00;92415.75;4813690;29;20035;-80
2023/07/24 05:22:39;;;;;;;44.35;19.83;;;;;;;18.68;100.00;92418.16;4811427;29;20042;-81
2023/07/24 05:25:05;;;;;;;42.38;19.10;;;;;;;18.74;100.00;92398.28;4812216;29;20046;-80
2023/07/24 05:27:30;;;;;;;41.60;19.60;;;;;;;18.79;100.00;92363.56;4808816;29;20035;-80
2023/07/24 05:29:56;;;;;;;40.30;19.55;;;;;;;18.85;100.00;92343.66;4814487;29;20038;-80
2023/07/24 05:32:21;;;;;;;42.25;18.85;;;;;;;18.91;100.00;92330.91;4806497;29;20038;-81
2023/07/24 05:34:47;;;;;;;43.72;19.48;;;;;;;18.95;100.00;92315.09;4809796;29;20125;-80
2023/07/24 05:37:13;;;;;;;44.85;20.13;;;;;;;18.99;100.00;92311.41;4801704;29;20037;-80
2023/07/24 05:39:38;;;;;;;48.55;20.30;;;;;;;19.07;100.00;92322.94;4799808;29;20064;-79
2023/07/24 05:42:04;;;;;;;41.58;19.88;;;;;;;19.09;100.00;92349.91;4803235;29;20042;-81
2023/07/24 05:44:30;;;;;;;45.25;22.05;;;;;;;19.07;100.00;92368.84;4804478;29;20043;-80
2023/07/24 05:46:55;;;;;;;46.15;20.40;;;;;;;19.06;100.00;92361.97;4808438;29;20143;-80
2023/07/24 05:49:21;;;;;;;48.25;20.00;;;;;;;19.10;100.00;92375.34;4803572;29;20328;-80
2023/07/24 05:51:46;;;;;;;44.63;19.25;;;;;;;19.10;100.00;92386.72;4808802;29;20038;-80
2023/07/24 05:54:12;;;;;;;41.28;19.10;;;;;;;19.08;100.00;92385.53;4800134;29;20054;-77
2023/07/24 05:56:37;;;;;;;43.92;20.05;;;;;;;19.08;100.00;92382.88;4796642;29;20027;-80
2023/07/24 05:59:03;;;;;;;43.78;19.38;;;;;;;19.07;100.00;92389.28;4799611;29;20082;-81
2023/07/24 06:01:29;;;;;;;49.22;20.23;;;;;;;19.11;100.00;92408.72;4813843;29;20038;-80
2023/07/24 06:03:54;;;;;;;44.33;19.35;;;;;;;19.17;100.00;92374.75;4809739;29;20035;-79
2023/07/24 06:06:20;;;;;;;51.88;19.17;;;;;;;19.09;100.00;92371.13;4808065;29;20034;-81
2023/07/24 06:08:47;;;;;;;45.25;20.05;;;;;;;19.20;100.00;92406.66;4808218;29;20076;-81
2023/07/24 06:11:13;;;;;;;42.78;19.02;;;;;;;19.15;100.00;92438.75;4807959;29;20042;-81
2023/07/24 06:13:38;;;;;;;43.85;19.13;;;;;;;19.06;100.00;92464.66;4807174;29;20071;-81
2023/07/24 06:16:04;;;;;;;46.92;20.00;;;;;;;18.95;100.00;92464.38;4806324;29;20520;-82
2023/07/24 06:18:30;;;;;;;54.22;23.48;;;;;;;18.90;100.00;92465.41;4807842;29;20053;-81
2023/07/24 06:20:55;;;;;;;50.38;21.15;;;;;;;18.90;100.00;92480.53;4805131;29;20038;-81
2023/07/24 06:23:21;;;;;;;47.13;21.15;;;;;;;18.95;100.00;92490.13;4796383;29;20070;-81
2023/07/24 06:25:47;;;;;;;50.85;21.70;;;;;;;18.97;100.00;92506.50;4786094;29;20077;-82
2023/07/24 06:28:12;;;;;;;49.47;22.08;;;;;;;18.93;100.00;92515.09;4783801;29;20043;-82
2023/07/24 06:30:38;;;;;;;50.70;21.65;;;;;;;18.92;100.00;92529.50;4783422;29;20405;-81
2023/07/24 06:33:04;;;;;;;47.35;21.27;;;;;;;18.96;100.00;92519.00;4790789;29;20442;-81
2023/07/24 06:35:30;;;;;;;48.13;21.40;;;;;;;18.96;100.00;92510.22;4783323;29;20091;-80
2023/07/24 06:37:56;;;;;;;46.40;21.48;;;;;;;18.90;100.00;92488.50;4781803;29;20537;-81
2023/07/24 06:40:21;;;;;;;51.13;22.23;;;;;;;18.89;100.00;92460.41;4790352;29;20055;-79
2023/07/24 06:42:47;;;;;;;48.58;21.35;;;;;;;18.88;100.00;92435.78;4784750;29;20057;-80
2023/07/24 06:45:13;;;;;;;55.30;22.70;;;;;;;18.85;100.00;92406.53;4788773;29;20049;-80
2023/07/24 06:47:38;;;;;;;46.20;20.92;;;;;;;18.82;100.00;92386.75;4784898;29;20481;-79
2023/07/24 06:50:04;;;;;;;49.42;21.98;;;;;;;18.81;100.00;92389.75;4790896;29;20066;-79
2023/07/24 06:52:32;;;;;;;57.28;22.52;;;;;;;18.73;100.00;92404.66;4781952;29;20442;-79
2023/07/24 06:54:58;;;;;;;55.72;22.63;;;;;;;18.72;100.00;92395.19;4789039;29;20410;-82
2023/07/24 06:57:24;;;;;;;49.90;21.92;;;;;;;18.72;100.00;92395.19;4788874;29;20131;-79
2023/07/24 06:59:50;;;;;;;54.00;21.83;;;;;;;18.70;100.00;92415.97;4787461;29;20043;-81
2023/07/24 07:02:15;;;;;;;55.20;22.42;;;;;;;18.64;100.00;92435.84;4785980;29;20305;-81
2023/07/24 07:04:41;;;;;;;44.42;19.92;;;;;;;18.63;100.00;92423.72;4787551;29;20043;-81
2023/07/24 07:07:07;;;;;;;52.17;20.30;;;;;;;18.64;100.00;92404.03;4791753;29;20116;-81
2023/07/24 07:09:32;;;;;;;50.83;21.60;;;;;;;18.63;100.00;92405.16;4786869;29;20050;-80
2023/07/24 07:11:58;;;;;;;47.50;21.02;;;;;;;18.64;100.00;92417.28;4789485;29;20135;-82
2023/07/24 07:14:24;;;;;;;56.72;22.33;;;;;;;18.62;100.00;92443.38;4808472;29;20047;-80
2023/07/24 07:16:49;;;;;;;60.13;23.00;;;;;;;18.59;100.00;92478.50;4809950;29;20038;-81
2023/07/24 07:19:15;;;;;;;56.58;21.17;;;;;;;18.56;100.00;92511.78;4802776;29;20039;-82
2023/07/24 07:21:41;;;;;;;55.60;21.42;;;;;;;18.56;100.00;92538.28;4810403;29;20053;-82
2023/07/24 07:24:06;;;;;;;52.17;20.52;;;;;;;18.48;100.00;92555.81;4816224;29;20042;-82
2023/07/24 07:26:33;;;;;;;57.30;20.95;;;;;;;18.48;100.00;92570.97;4805345;29;20034;-81
2023/07/24 07:28:59;;;;;;;49.95;20.98;;;;;;;18.46;100.00;92560.72;4806488;29;20047;-80
2023/07/24 07:31:25;;;;;;;62.20;24.08;;;;;;;18.37;100.00;92541.47;4805631;29;20039;-80
2023/07/24 07:33:50;;;;;;;58.50;23.67;;;;;;;18.29;100.00;92534.44;4807009;29;20410;-80
2023/07/24 07:36:17;;;;;;;49.60;22.42;;;;;;;18.26;100.00;92519.19;4805251;29;20070;-80
2023/07/24 07:38:43;;;;;;;54.70;21.98;;;;;;;18.23;100.00;92506.63;4806231;29;20451;-80
2023/07/24 07:41:08;;;;;;;55.35;22.75;;;;;;;18.23;100.00;92498.66;4807191;29;20038;-80
2023/07/24 07:43:36;;;;;;;52.83;21.48;;;;;;;18.25;100.00;92491.16;4806781;29;20046;-80
2023/07/24 07:46:02;;;;;;;65.05;24.65;;;;;;;18.26;100.00;92484.75;4806213;29;20043;-82
2023/07/24 07:48:28;;;;;;;130.38;25.92;;;;;;;18.16;100.00;92487.88;4811222;29;20541;-81
2023/07/24 07:50:54;;;;;;;379.20;31.33;;;;;;;18.12;100.00;92506.28;4809628;29;20129;-81
2023/07/24 07:53:19;;;;;;;54.60;25.05;;;;;;;18.07;100.00;92488.75;4811890;29;20042;-79
2023/07/24 07:55:45;;;;;;;54.75;24.90;;;;;;;18.10;100.00;92477.50;4808350;29;20516;-81
2023/07/24 07:58:11;;;;;;;52.80;25.25;;;;;;;18.12;100.00;92444.59;4810485;29;20047;-80
2023/07/24 08:00:39;;;;;;;52.30;23.80;;;;;;;18.10;100.00;92365.47;4815401;29;20034;-80
2023/07/24 08:03:05;;;;;;;65.32;23.95;;;;;;;18.06;100.00;92301.81;4809712;29;20062;-80
2023/07/24 08:05:32;;;;;;;58.60;24.17;;;;;;;18.07;100.00;92315.81;4810483;29;20044;-80
2023/07/24 08:07:57;;;;;;;56.13;24.33;;;;;;;18.05;100.00;92377.06;4815431;29;20472;-80
2023/07/24 08:10:23;;;;;;;56.10;24.33;;;;;;;18.07;100.00;92342.31;4811318;29;20067;-79
2023/07/24 08:12:49;;;;;;;56.17;23.35;;;;;;;18.07;100.00;92329.06;4815156;29;20030;-79
2023/07/24 08:15:14;;;;;;;64.22;25.23;;;;;;;18.06;100.00;92333.59;4814521;29;20059;-82
2023/07/24 08:17:40;;;;;;;66.10;24.60;;;;;;;18.10;100.00;92360.97;4807671;29;20031;-77
2023/07/24 08:20:06;;;;;;;58.15;24.52;;;;;;;18.04;100.00;92386.13;4800643;29;20053;-79
2023/07/24 08:22:32;;;;;;;55.13;24.33;;;;;;;18.04;100.00;92394.06;4811378;29;20121;-79
2023/07/24 08:24:57;;;;;;;69.68;24.98;;;;;;;18.01;100.00;92386.81;4811476;29;20085;-79
2023/07/24 08:27:23;;;;;;;61.83;26.45;;;;;;;17.97;100.00;92321.56;4787702;29;20043;-80
2023/07/24 08:29:52;;;;;;;64.22;25.85;;;;;;;17.86;100.00;92221.44;4803710;29;20189;-80
2023/07/24 08:32:19;;;;;;;54.47;23.20;;;;;;;17.97;100.00;92285.28;4804930;29;20502;-79
2023/07/24 08:34:44;;;;;;;69.07;27.67;;;;;;;17.97;100.00;92358.66;4797361;29;20039;-81
2023/07/24 08:37:11;;;;;;;63.08;27.40;;;;;;;17.98;100.00;92392.75;4800209;29;20072;-79
2023/07/24 08:39:38;;;;;;;63.80;26.63;;;;;;;18.06;100.00;92389.22;4796882;29;20045;-79
2023/07/24 08:42:13;;;;;;;57.83;25.95;;;;;;;18.16;100.00;92377.38;4786009;29;20155;-78
2023/07/24 08:44:39;;;;;;;59.08;26.15;;;;;;;18.30;100.00;92371.69;4780511;29;20581;-79
2023/07/24 08:47:09;;;;;;;57.72;26.73;;;;;;;18.49;100.00;92377.16;4782684;29;20744;-77
2023/07/24 08:49:38;;;;;;;64.47;27.23;;;;;;;19.11;100.00;92355.66;4787246;29;20126;-81
2023/07/24 08:52:05;;;;;;;76.22;31.35;;;;;;;19.80;100.00;92376.63;4807284;29;20072;-82
2023/07/24 08:54:35;;;;;;;54.88;26.08;;;;;;;20.05;100.00;92383.25;4806887;29;20117;-81
2023/07/24 08:57:02;;;;;;;69.05;26.77;;;;;;;20.08;100.00;92403.78;4807580;29;20031;-81
2023/07/24 08:59:28;;;;;;;60.97;26.10;;;;;;;20.16;100.00;92399.41;4807073;29;20043;-81
2023/07/24 09:01:54;;;;;;;59.45;25.55;;;;;;;20.10;100.00;92398.91;4802625;29;20089;-80
2023/07/24 09:04:19;;;;;;;60.97;24.73;;;;;;;20.09;100.00;92405.34;4806342;29;20070;-82
2023/07/24 09:06:45;;;;;;;60.08;23.33;;;;;;;20.10;100.00;92448.63;4801839;29;20027;-82
2023/07/24 09:09:14;;;;;;;63.95;24.17;;;;;;;20.01;100.00;92503.84;4804073;29;20502;-80
2023/07/24 09:11:53;;;;;;;62.83;25.42;;;;;;;19.95;100.00;92440.34;4802071;29;20043;-81
2023/07/24 09:14:31;;;;;;;62.35;25.10;;;;;;;20.00;100.00;92423.38;4790117;29;21170;-81
2023/07/24 09:17:08;;;;;;;58.13;25.92;;;;;;;19.98;100.00;92408.91;4792633;29;20038;-80
2023/07/24 09:19:35;;;;;;;61.63;26.05;;;;;;;19.93;100.00;92405.38;4799598;29;20076;-81
2023/07/24 09:22:11;;;;;;;56.67;24.70;;;;;;;19.85;100.00;92512.56;4792274;29;20049;-79
2023/07/24 09:24:37;;;;;;;64.43;25.52;;;;;;;19.76;100.00;92568.50;4792227;29;20135;-81
2023/07/24 09:27:06;;;;;;;62.17;25.02;;;;;;;19.66;100.00;92473.41;4796416;29;20046;-79
2023/07/24 09:29:33;;;;;;;61.47;24.67;;;;;;;19.52;100.00;92404.00;4783144;29;20104;-81
2023/07/24 09:31:59;;;;;;;61.50;26.13;;;;;;;19.56;100.00;92402.22;4787056;29;20885;-81
2023/07/24 09:34:28;;;;;;;71.10;26.67;;;;;;;19.87;100.00;92396.13;4786760;29;20042;-81
2023/07/24 09:36:54;;;;;;;70.68;28.42;;;;;;;20.16;100.00;92394.09;4784000;29;20055;-81
2023/07/24 09:39:26;;;;;;;60.90;26.77;;;;;;;19.98;100.00;92393.72;4799714;29;20098;-82
2023/07/24 09:41:52;;;;;;;64.15;27.55;;;;;;;19.88;100.00;92375.66;4797570;29;20030;-82
2023/07/24 09:44:18;;;;;;;71.60;28.60;;;;;;;19.83;100.00;92421.06;4784218;29;20369;-79
2023/07/24 09:46:44;;;;;;;60.22;26.40;;;;;;;19.80;100.00;92514.72;4784250;29;20651;-80
2023/07/24 09:49:10;;;;;;;64.07;27.73;;;;;;;19.53;100.00;92556.88;4784814;29;20661;-79
2023/07/24 09:51:37;;;;;;;62.53;25.77;;;;;;;19.35;100.00;92488.19;4787716;29;20497;-81
2023/07/24 09:54:09;;;;;;;66.68;26.48;;;;;;;19.18;100.00;92525.63;4796492;29;20135;-78
2023/07/24 09:56:36;;;;;;;;;;;;;;;19.10;100.00;92529.22;4786283;29;20629;-78
2023/07/24 09:59:02;;;;;;;69.50;26.45;;;;;;;19.18;100.00;92432.75;4783814;29;19931;-80
2023/07/24 10:01:29;;;;;;;67.78;26.85;;;;;;;19.57;100.00;92427.66;4786776;29;20406;-81
2023/07/24 10:03:55;;;;;;;65.63;25.52;;;;;;;19.86;100.00;92420.38;4789251;29;20057;-80
2023/07/24 10:06:21;;;;;;;58.70;24.65;;;;;;;19.98;100.00;92425.59;4805385;29;20046;-81
2023/07/24 10:08:48;;;;;;;61.92;25.35;;;;;;;20.03;100.00;92409.38;4804969;29;20065;-79
2023/07/24 10:11:14;;;;;;;309.58;34.83;;;;;;;19.84;100.00;92401.38;4788350;29;20169;-81
2023/07/24 10:13:41;;;;;;;76.72;30.98;;;;;;;19.92;100.00;92397.75;4788985;29;20046;-81
2023/07/24 10:16:08;;;;;;;64.47;27.38;;;;;;;20.00;100.00;92396.03;4792668;29;20037;-82
2023/07/24 10:18:35;;;;;;;65.18;25.70;;;;;;;20.31;100.00;92393.28;4793601;29;20034;-83
2023/07/24 10:21:06;;;;;;;61.88;25.48;;;;;;;20.48;100.00;92384.13;4782304;29;20181;-81
2023/07/24 10:23:35;;;;;;;63.88;23.77;;;;;;;20.53;100.00;92367.09;4784561;29;20043;-80
2023/07/24 10:26:04;;;;;;;69.13;24.25;;;;;;;20.58;100.00;92325.09;4784726;29;20578;-82
2023/07/24 10:28:38;;;;;;;57.08;22.83;;;;;;;20.72;100.00;92321.91;4775160;29;20039;-81
2023/07/24 10:31:08;;;;;;;51.80;20.15;;;;;;;20.77;100.00;92344.81;4784322;29;20043;-81
2023/07/24 10:33:44;;;;;;;41.63;16.42;;;;;;;20.66;100.00;92370.44;4792750;29;20058;-81
2023/07/24 10:36:10;;;;;;;46.72;18.77;;;;;;;20.58;100.00;92367.63;4809219;29;20049;-81
2023/07/24 10:38:39;;;;;;;44.75;18.27;;;;;;;20.45;100.00;92365.44;4804441;29;20043;-81
2023/07/24 10:41:06;;;;;;;53.08;17.88;;;;;;;20.41;100.00;92360.06;4809038;29;20035;-82
2023/07/24 10:43:46;;;;;;;46.35;17.25;;;;;;;20.44;100.00;92332.75;4802888;29;20050;-81
2023/07/24 10:46:12;;;;;;;44.35;18.65;;;;;;;20.44;100.00;92322.13;4804957;29;20073;-81
2023/07/24 10:48:42;;;;;;;50.97;21.30;;;;;;;20.41;100.00;92333.47;4804203;29;20041;-81
2023/07/24 10:51:10;;;;;;;58.13;22.73;;;;;;;20.40;100.00;92329.28;4802055;29;20047;-79
2023/07/24 10:53:37;;;;;;;51.53;20.83;;;;;;;20.57;100.00;92290.88;4805345;29;20038;-79
2023/07/24 10:56:05;;;;;;;52.92;18.65;;;;;;;20.81;100.00;92300.41;4803134;29;20050;-80
2023/07/24 10:58:31;;;;;;;41.97;18.50;;;;;;;20.77;100.00;92318.19;4809098;29;20042;-76
2023/07/24 11:00:58;;;;;;;60.13;23.75;;;;;;;20.53;100.00;92298.75;4801289;29;20044;-78
2023/07/24 11:03:24;;;;;;;64.00;28.90;;;;;;;20.16;100.00;92291.22;4802014;29;20031;-78
2023/07/24 11:05:51;;;;;;;72.32;31.08;;;;;;;19.75;100.00;92295.34;4802919;29;20047;-80